Airfield :
LOGIN :

Register | Disclaimer

   EN    FR    IT 

 










Legend :    VFR   Marginal VFR   IFR   Intensive IFR   Very Intensive IFR
Visi :
Ceiling :
>= 8 km
>= 3000ft
5 to 8 km
1000 to 3000 ft
1500m to 5 km
500 to 1000 ft
800 to 1500m
200 to 500 ft
< 800m
< 200 ft
Symbols :   Thunderstorms  Fog  Heavy snow  Heavy precipitations  Wind > 20 kt
SIGMETs :     Misc.  Thunderstorms  Icing  Turbulence  Mountain Waves  Volcanic Ashes







- Airport Elevation : 1363 ft


ETIC - Grafenwohr Army Air Field

CURRENT METAR :
  • 221256Z AUTO 29011G19KT 9999 -RA FEW005 SCT027 BKN033 OVC041 11/08 A3016 RMK AO2 PK WND 29028/32 RAB44 SLP221 P0001 T01090078 $

EXPIRED METARs :
  • 221248Z AUTO 29015G21KT 9999 -RA FEW005 BKN030 BKN040 OVC110 12/07 A3016 RMK AO2 RAB44 SLP219 $
  • 221244Z AUTO 29016G21KT 9999 -RA BKN032 BKN040 OVC110 13/07 A3015 RMK AO2 RAB44 SLP214 $
  • 221211Z AUTO 27014G20KT 9999 SCT024 BKN030 BKN040 BKN060 13/08 A3015 RMK AO2 SLP214 $
  • 221156Z AUTO 26011G20KT 9999 BKN024 BKN030 OVC041 11/07 A3016 RMK AO2 RAB15E25DZB25E26DZB39E50 SLP219 P0000 60002 70002 T01130074 10125 20092 50008 $
  • 221139Z AUTO 29013G23KT 9999 -DZ BKN022 OVC030 11/07 A3016 RMK AO2 RAB15E25DZB25E26DZB39 SLP218 $
  • 221126Z AUTO 28012G16KT 9999 BKN020 BKN025 OVC043 11/07 A3017 RMK AO2 RAB15E25DZB25E26 SLP221 $
  • 221115Z AUTO 27008G14KT 9999 -RA BKN018 BKN025 OVC070 11/08 A3017 RMK AO2 RAB15 CIG 018V024 BKN018 V SCT SLP221 $
  • 221111Z AUTO 28009KT 9999 BKN018 BKN025 BKN043 OVC070 11/08 A3017 RMK AO2 CIG 018V038 BKN018 V SCT SLP221 $
  • 221056Z AUTO 27007KT 9999 SCT020 BKN038 BKN048 OVC070 10/08 A3017 RMK AO2 RAE51 SLP221 P0002 T01010082 $
  • 221051Z AUTO 26007KT 9999 FEW018 FEW025 BKN038 BKN050 OVC070 10/08 A3017 RMK AO2 RAE51 SLP221 $
  • 221041Z AUTO 27008KT 9999 -RA SCT019 SCT025 SCT030 OVC037 09/07 A3018 RMK AO2 SLP226 $
  • 221026Z AUTO 27013G16KT 9999 -RA FEW016 SCT023 BKN027 BKN034 OVC044 09/08 A3017 RMK AO2 SLP221 $

TAF AMD TAF ETIC
Valid from the 21 at 22:00 until the 23 at 04:00 UTC


212244Z 2122/2304 33009KT 9999 FEW030 BKN140 QNH3000INS
BECMG 2206/2207 28012G18KT 9999 BKN030 QNH3015INS
BECMG 2210/2211 28012G20KT 8000 -SHRA BKN020 QNH3017INS
BECMG 2215/2216 30012KT 9999 NSW SCT030 BKN040 QNH3018INS TX15/2214Z TN07/2204Z LAST NO AMDS AFT 2122 NEXT 2520
No reported NOTAMs for that airfield.



MET'MAP, your aeronautical weather chart ! - Copyright ORBIFLY December 2007 - Disclaimer

ORBIFLY MET'MAP TEAM :

Programming & Development : Alexandra Zaïnal
Concept & Development : Baudouin d'Aumeries
Co-Development & Prog : Marc-Olivier Méhu
Technical & hardware support : Manuel Goepfert

Contact : metmap@orbifly.com




SOURCES & CREDITS :

   NOAA